sensor_id;sensor_type;location;lat;lon;timestamp;P1;durP1;ratioP1;P2;durP2;ratioP2
46363;SDS011;32071;49.036;9.344;2023-06-22T00:00:56;12.67;;;8.17;;
46363;SDS011;32071;49.036;9.344;2023-06-22T00:03:23;13.90;;;7.70;;
46363;SDS011;32071;49.036;9.344;2023-06-22T00:05:50;15.63;;;8.90;;
46363;SDS011;32071;49.036;9.344;2023-06-22T00:08:17;8.40;;;7.53;;
46363;SDS011;32071;49.036;9.344;2023-06-22T00:10:43;8.63;;;7.07;;
46363;SDS011;32071;49.036;9.344;2023-06-22T00:13:10;9.93;;;7.60;;
46363;SDS011;32071;49.036;9.344;2023-06-22T00:15:36;10.37;;;8.13;;
46363;SDS011;32071;49.036;9.344;2023-06-22T00:18:03;10.53;;;8.83;;
46363;SDS011;32071;49.036;9.344;2023-06-22T00:20:31;12.67;;;7.67;;
46363;SDS011;32071;49.036;9.344;2023-06-22T00:22:58;11.00;;;7.93;;
46363;SDS011;32071;49.036;9.344;2023-06-22T00:25:25;11.63;;;7.77;;
46363;SDS011;32071;49.036;9.344;2023-06-22T00:27:50;10.00;;;7.40;;
46363;SDS011;32071;49.036;9.344;2023-06-22T00:30:17;16.13;;;8.20;;
46363;SDS011;32071;49.036;9.344;2023-06-22T00:32:43;9.17;;;7.70;;
46363;SDS011;32071;49.036;9.344;2023-06-22T00:35:10;13.80;;;8.33;;
46363;SDS011;32071;49.036;9.344;2023-06-22T00:37:37;8.80;;;7.63;;
46363;SDS011;32071;49.036;9.344;2023-06-22T00:40:05;15.13;;;7.87;;
46363;SDS011;32071;49.036;9.344;2023-06-22T00:42:33;13.43;;;7.90;;
46363;SDS011;32071;49.036;9.344;2023-06-22T00:44:59;9.47;;;8.57;;
46363;SDS011;32071;49.036;9.344;2023-06-22T00:47:24;10.20;;;8.07;;
46363;SDS011;32071;49.036;9.344;2023-06-22T00:49:50;8.13;;;7.30;;
46363;SDS011;32071;49.036;9.344;2023-06-22T00:52:16;12.87;;;8.30;;
46363;SDS011;32071;49.036;9.344;2023-06-22T00:54:45;9.03;;;7.70;;
46363;SDS011;32071;49.036;9.344;2023-06-22T00:57:13;10.57;;;7.33;;
46363;SDS011;32071;49.036;9.344;2023-06-22T00:59:43;11.53;;;8.63;;
46363;SDS011;32071;49.036;9.344;2023-06-22T01:02:13;9.07;;;8.17;;
46363;SDS011;32071;49.036;9.344;2023-06-22T01:04:39;8.37;;;7.53;;
46363;SDS011;32071;49.036;9.344;2023-06-22T01:12:20;7.70;;;6.77;;
46363;SDS011;32071;49.036;9.344;2023-06-22T01:14:57;11.13;;;8.03;;
46363;SDS011;32071;49.036;9.344;2023-06-22T01:17:29;8.97;;;7.80;;
46363;SDS011;32071;49.036;9.344;2023-06-22T01:19:56;9.50;;;8.13;;
46363;SDS011;32071;49.036;9.344;2023-06-22T01:22:26;10.70;;;8.73;;
46363;SDS011;32071;49.036;9.344;2023-06-22T01:30:39;9.80;;;8.53;;
46363;SDS011;32071;49.036;9.344;2023-06-22T01:33:07;10.63;;;8.07;;
46363;SDS011;32071;49.036;9.344;2023-06-22T01:35:36;10.90;;;8.43;;
46363;SDS011;32071;49.036;9.344;2023-06-22T01:38:03;14.10;;;9.17;;
46363;SDS011;32071;49.036;9.344;2023-06-22T01:40:29;10.40;;;8.20;;
46363;SDS011;32071;49.036;9.344;2023-06-22T01:42:56;14.90;;;8.80;;
46363;SDS011;32071;49.036;9.344;2023-06-22T01:45:22;13.50;;;9.03;;
46363;SDS011;32071;49.036;9.344;2023-06-22T01:47:49;11.37;;;8.67;;
46363;SDS011;32071;49.036;9.344;2023-06-22T01:50:15;12.43;;;8.60;;
46363;SDS011;32071;49.036;9.344;2023-06-22T01:52:40;12.87;;;9.03;;
46363;SDS011;32071;49.036;9.344;2023-06-22T01:55:06;13.33;;;8.63;;
46363;SDS011;32071;49.036;9.344;2023-06-22T01:57:33;10.83;;;8.90;;
46363;SDS011;32071;49.036;9.344;2023-06-22T02:00:00;11.63;;;9.73;;
46363;SDS011;32071;49.036;9.344;2023-06-22T02:02:30;12.23;;;8.67;;
46363;SDS011;32071;49.036;9.344;2023-06-22T02:05:08;11.27;;;9.00;;
46363;SDS011;32071;49.036;9.344;2023-06-22T02:07:39;11.03;;;8.87;;
46363;SDS011;32071;49.036;9.344;2023-06-22T02:10:11;10.73;;;8.80;;
46363;SDS011;32071;49.036;9.344;2023-06-22T02:12:40;14.10;;;9.70;;
46363;SDS011;32071;49.036;9.344;2023-06-22T02:15:08;15.73;;;8.53;;
46363;SDS011;32071;49.036;9.344;2023-06-22T02:17:35;9.70;;;8.00;;
46363;SDS011;32071;49.036;9.344;2023-06-22T02:20:02;10.50;;;8.50;;
46363;SDS011;32071;49.036;9.344;2023-06-22T02:22:33;13.40;;;8.60;;
46363;SDS011;32071;49.036;9.344;2023-06-22T02:24:59;12.80;;;9.30;;
46363;SDS011;32071;49.036;9.344;2023-06-22T02:27:25;16.93;;;9.07;;
46363;SDS011;32071;49.036;9.344;2023-06-22T02:29:50;10.23;;;8.63;;
46363;SDS011;32071;49.036;9.344;2023-06-22T02:32:16;9.90;;;8.90;;
46363;SDS011;32071;49.036;9.344;2023-06-22T02:34:42;10.90;;;8.60;;
46363;SDS011;32071;49.036;9.344;2023-06-22T02:37:12;14.50;;;9.37;;
46363;SDS011;32071;49.036;9.344;2023-06-22T02:39:39;12.33;;;8.50;;
46363;SDS011;32071;49.036;9.344;2023-06-22T02:42:05;16.73;;;8.90;;
46363;SDS011;32071;49.036;9.344;2023-06-22T02:44:31;15.80;;;9.43;;
46363;SDS011;32071;49.036;9.344;2023-06-22T02:46:56;12.10;;;8.90;;
46363;SDS011;32071;49.036;9.344;2023-06-22T02:49:23;8.83;;;7.80;;
46363;SDS011;32071;49.036;9.344;2023-06-22T02:51:49;11.37;;;9.23;;
46363;SDS011;32071;49.036;9.344;2023-06-22T02:54:15;11.77;;;8.27;;
46363;SDS011;32071;49.036;9.344;2023-06-22T02:56:41;15.97;;;8.47;;
46363;SDS011;32071;49.036;9.344;2023-06-22T02:59:09;14.23;;;9.07;;
46363;SDS011;32071;49.036;9.344;2023-06-22T03:01:35;9.87;;;8.87;;
46363;SDS011;32071;49.036;9.344;2023-06-22T03:04:05;14.00;;;9.37;;
46363;SDS011;32071;49.036;9.344;2023-06-22T03:06:34;8.90;;;7.90;;
46363;SDS011;32071;49.036;9.344;2023-06-22T03:09:01;13.40;;;9.10;;
46363;SDS011;32071;49.036;9.344;2023-06-22T03:11:29;12.20;;;8.50;;
46363;SDS011;32071;49.036;9.344;2023-06-22T03:13:58;19.00;;;9.97;;
46363;SDS011;32071;49.036;9.344;2023-06-22T03:16:24;13.13;;;9.80;;
46363;SDS011;32071;49.036;9.344;2023-06-22T03:18:49;14.07;;;8.90;;
46363;SDS011;32071;49.036;9.344;2023-06-22T03:21:15;12.53;;;8.77;;
46363;SDS011;32071;49.036;9.344;2023-06-22T03:23:41;10.60;;;9.40;;
46363;SDS011;32071;49.036;9.344;2023-06-22T03:26:08;12.80;;;9.00;;
46363;SDS011;32071;49.036;9.344;2023-06-22T03:28:34;12.60;;;8.40;;
46363;SDS011;32071;49.036;9.344;2023-06-22T03:31:00;12.20;;;8.63;;
46363;SDS011;32071;49.036;9.344;2023-06-22T03:33:25;16.83;;;8.40;;
46363;SDS011;32071;49.036;9.344;2023-06-22T03:35:51;11.27;;;9.17;;
46363;SDS011;32071;49.036;9.344;2023-06-22T03:38:17;12.33;;;8.70;;
46363;SDS011;32071;49.036;9.344;2023-06-22T03:40:43;14.10;;;9.30;;
46363;SDS011;32071;49.036;9.344;2023-06-22T03:43:08;11.50;;;8.63;;
46363;SDS011;32071;49.036;9.344;2023-06-22T03:45:34;9.83;;;8.40;;
46363;SDS011;32071;49.036;9.344;2023-06-22T03:48:00;12.53;;;9.07;;
46363;SDS011;32071;49.036;9.344;2023-06-22T03:50:26;18.90;;;9.93;;
46363;SDS011;32071;49.036;9.344;2023-06-22T03:52:52;11.47;;;7.80;;
46363;SDS011;32071;49.036;9.344;2023-06-22T03:55:19;12.70;;;9.20;;
46363;SDS011;32071;49.036;9.344;2023-06-22T03:57:44;12.37;;;8.97;;
46363;SDS011;32071;49.036;9.344;2023-06-22T04:00:10;11.77;;;9.13;;
46363;SDS011;32071;49.036;9.344;2023-06-22T04:02:36;11.47;;;9.27;;
46363;SDS011;32071;49.036;9.344;2023-06-22T04:05:02;14.70;;;9.67;;
46363;SDS011;32071;49.036;9.344;2023-06-22T04:07:28;14.83;;;8.50;;
46363;SDS011;32071;49.036;9.344;2023-06-22T04:09:53;11.20;;;8.60;;
46363;SDS011;32071;49.036;9.344;2023-06-22T04:12:19;17.13;;;9.63;;
46363;SDS011;32071;49.036;9.344;2023-06-22T04:14:44;13.40;;;9.80;;
46363;SDS011;32071;49.036;9.344;2023-06-22T04:17:10;14.97;;;9.77;;
46363;SDS011;32071;49.036;9.344;2023-06-22T04:19:39;12.80;;;9.47;;
46363;SDS011;32071;49.036;9.344;2023-06-22T04:22:04;16.23;;;9.47;;
46363;SDS011;32071;49.036;9.344;2023-06-22T04:24:32;11.97;;;9.63;;
46363;SDS011;32071;49.036;9.344;2023-06-22T04:26:58;17.47;;;10.37;;
46363;SDS011;32071;49.036;9.344;2023-06-22T04:29:27;18.70;;;10.63;;
46363;SDS011;32071;49.036;9.344;2023-06-22T04:31:55;11.90;;;9.63;;
46363;SDS011;32071;49.036;9.344;2023-06-22T04:34:28;14.97;;;11.30;;
46363;SDS011;32071;49.036;9.344;2023-06-22T04:36:53;11.43;;;10.23;;
46363;SDS011;32071;49.036;9.344;2023-06-22T04:39:19;12.33;;;10.20;;
46363;SDS011;32071;49.036;9.344;2023-06-22T04:41:45;11.50;;;10.30;;
46363;SDS011;32071;49.036;9.344;2023-06-22T04:46:37;23.70;;;11.60;;
46363;SDS011;32071;49.036;9.344;2023-06-22T04:49:07;12.73;;;10.20;;
46363;SDS011;32071;49.036;9.344;2023-06-22T04:51:39;10.90;;;9.20;;
46363;SDS011;32071;49.036;9.344;2023-06-22T04:54:06;11.33;;;10.20;;
46363;SDS011;32071;49.036;9.344;2023-06-22T04:56:32;14.93;;;10.43;;
46363;SDS011;32071;49.036;9.344;2023-06-22T04:58:57;11.67;;;10.57;;
46363;SDS011;32071;49.036;9.344;2023-06-22T05:01:23;11.40;;;9.93;;
46363;SDS011;32071;49.036;9.344;2023-06-22T05:03:50;10.23;;;9.27;;
46363;SDS011;32071;49.036;9.344;2023-06-22T05:06:16;11.07;;;9.37;;
46363;SDS011;32071;49.036;9.344;2023-06-22T05:08:42;10.43;;;9.33;;
46363;SDS011;32071;49.036;9.344;2023-06-22T05:11:08;11.03;;;8.70;;
46363;SDS011;32071;49.036;9.344;2023-06-22T05:13:34;10.60;;;8.20;;
46363;SDS011;32071;49.036;9.344;2023-06-22T05:15:59;10.93;;;8.93;;
46363;SDS011;32071;49.036;9.344;2023-06-22T05:18:28;10.43;;;9.23;;
46363;SDS011;32071;49.036;9.344;2023-06-22T05:20:54;11.03;;;8.20;;
46363;SDS011;32071;49.036;9.344;2023-06-22T05:23:20;12.27;;;8.60;;
46363;SDS011;32071;49.036;9.344;2023-06-22T05:25:46;10.80;;;8.60;;
46363;SDS011;32071;49.036;9.344;2023-06-22T05:28:11;9.90;;;8.10;;
46363;SDS011;32071;49.036;9.344;2023-06-22T05:30:37;10.53;;;8.80;;
46363;SDS011;32071;49.036;9.344;2023-06-22T05:33:03;9.33;;;8.30;;
46363;SDS011;32071;49.036;9.344;2023-06-22T05:35:28;10.23;;;8.57;;
46363;SDS011;32071;49.036;9.344;2023-06-22T05:37:54;11.43;;;9.33;;
46363;SDS011;32071;49.036;9.344;2023-06-22T05:40:20;9.57;;;8.50;;
46363;SDS011;32071;49.036;9.344;2023-06-22T05:42:46;10.13;;;9.03;;
46363;SDS011;32071;49.036;9.344;2023-06-22T05:45:12;11.30;;;8.73;;
46363;SDS011;32071;49.036;9.344;2023-06-22T05:47:38;10.87;;;8.63;;
46363;SDS011;32071;49.036;9.344;2023-06-22T05:50:04;11.27;;;8.93;;
46363;SDS011;32071;49.036;9.344;2023-06-22T05:52:33;10.53;;;8.50;;
46363;SDS011;32071;49.036;9.344;2023-06-22T05:54:59;9.10;;;8.30;;
46363;SDS011;32071;49.036;9.344;2023-06-22T05:57:24;10.80;;;8.40;;
46363;SDS011;32071;49.036;9.344;2023-06-22T05:59:50;10.30;;;8.87;;
46363;SDS011;32071;49.036;9.344;2023-06-22T06:02:16;9.07;;;8.17;;
46363;SDS011;32071;49.036;9.344;2023-06-22T06:04:42;8.27;;;7.40;;
46363;SDS011;32071;49.036;9.344;2023-06-22T06:07:07;10.40;;;8.50;;
46363;SDS011;32071;49.036;9.344;2023-06-22T06:09:33;9.70;;;8.60;;
46363;SDS011;32071;49.036;9.344;2023-06-22T06:11:58;9.73;;;8.03;;
46363;SDS011;32071;49.036;9.344;2023-06-22T06:14:24;10.40;;;8.47;;
46363;SDS011;32071;49.036;9.344;2023-06-22T06:16:49;9.13;;;8.20;;
46363;SDS011;32071;49.036;9.344;2023-06-22T06:19:15;9.03;;;8.13;;
46363;SDS011;32071;49.036;9.344;2023-06-22T06:21:40;9.07;;;8.10;;
46363;SDS011;32071;49.036;9.344;2023-06-22T06:24:06;10.20;;;8.43;;
46363;SDS011;32071;49.036;9.344;2023-06-22T06:26:32;9.00;;;8.20;;
46363;SDS011;32071;49.036;9.344;2023-06-22T06:28:58;10.00;;;8.17;;
46363;SDS011;32071;49.036;9.344;2023-06-22T06:31:25;9.30;;;8.30;;
46363;SDS011;32071;49.036;9.344;2023-06-22T06:33:53;9.33;;;8.30;;
46363;SDS011;32071;49.036;9.344;2023-06-22T06:36:22;8.70;;;7.90;;
46363;SDS011;32071;49.036;9.344;2023-06-22T06:38:48;8.17;;;7.40;;
46363;SDS011;32071;49.036;9.344;2023-06-22T06:41:14;11.90;;;8.50;;
46363;SDS011;32071;49.036;9.344;2023-06-22T06:43:40;10.33;;;7.97;;
46363;SDS011;32071;49.036;9.344;2023-06-22T06:46:08;11.43;;;9.07;;
46363;SDS011;32071;49.036;9.344;2023-06-22T06:48:34;10.90;;;7.77;;
46363;SDS011;32071;49.036;9.344;2023-06-22T06:50:59;9.97;;;7.57;;
46363;SDS011;32071;49.036;9.344;2023-06-22T06:53:25;8.37;;;7.57;;
46363;SDS011;32071;49.036;9.344;2023-06-22T06:55:50;10.77;;;8.33;;
46363;SDS011;32071;49.036;9.344;2023-06-22T06:58:16;10.70;;;8.50;;
46363;SDS011;32071;49.036;9.344;2023-06-22T07:00:41;11.07;;;8.00;;
46363;SDS011;32071;49.036;9.344;2023-06-22T07:03:08;8.80;;;7.90;;
46363;SDS011;32071;49.036;9.344;2023-06-22T07:05:34;8.50;;;7.60;;
46363;SDS011;32071;49.036;9.344;2023-06-22T07:08:00;10.87;;;8.37;;
46363;SDS011;32071;49.036;9.344;2023-06-22T07:10:26;11.23;;;7.97;;
46363;SDS011;32071;49.036;9.344;2023-06-22T07:12:51;8.77;;;7.97;;
46363;SDS011;32071;49.036;9.344;2023-06-22T07:15:17;9.47;;;8.57;;
46363;SDS011;32071;49.036;9.344;2023-06-22T07:17:43;9.33;;;8.33;;
46363;SDS011;32071;49.036;9.344;2023-06-22T07:20:09;8.10;;;7.40;;
46363;SDS011;32071;49.036;9.344;2023-06-22T07:22:37;9.40;;;7.50;;
46363;SDS011;32071;49.036;9.344;2023-06-22T07:25:03;7.40;;;6.80;;
46363;SDS011;32071;49.036;9.344;2023-06-22T07:27:38;8.40;;;7.60;;
46363;SDS011;32071;49.036;9.344;2023-06-22T07:30:09;9.70;;;7.70;;
46363;SDS011;32071;49.036;9.344;2023-06-22T07:32:35;11.97;;;7.40;;
46363;SDS011;32071;49.036;9.344;2023-06-22T07:35:01;9.07;;;7.30;;
46363;SDS011;32071;49.036;9.344;2023-06-22T07:37:27;9.20;;;8.03;;
46363;SDS011;32071;49.036;9.344;2023-06-22T07:39:54;9.57;;;7.30;;
46363;SDS011;32071;49.036;9.344;2023-06-22T07:42:26;12.60;;;7.87;;
46363;SDS011;32071;49.036;9.344;2023-06-22T07:44:52;7.87;;;7.03;;
46363;SDS011;32071;49.036;9.344;2023-06-22T07:47:18;9.97;;;7.47;;
46363;SDS011;32071;49.036;9.344;2023-06-22T07:49:44;9.60;;;6.97;;
46363;SDS011;32071;49.036;9.344;2023-06-22T07:52:13;9.30;;;7.13;;
46363;SDS011;32071;49.036;9.344;2023-06-22T07:54:38;9.30;;;7.40;;
46363;SDS011;32071;49.036;9.344;2023-06-22T07:57:04;10.40;;;7.23;;
46363;SDS011;32071;49.036;9.344;2023-06-22T07:59:30;7.50;;;6.43;;
46363;SDS011;32071;49.036;9.344;2023-06-22T08:01:55;7.97;;;7.10;;
46363;SDS011;32071;49.036;9.344;2023-06-22T08:04:21;7.43;;;6.73;;
46363;SDS011;32071;49.036;9.344;2023-06-22T08:06:46;9.33;;;6.37;;
46363;SDS011;32071;49.036;9.344;2023-06-22T08:09:12;9.70;;;7.40;;
46363;SDS011;32071;49.036;9.344;2023-06-22T08:11:37;10.33;;;6.70;;
46363;SDS011;32071;49.036;9.344;2023-06-22T08:14:03;6.77;;;6.17;;
46363;SDS011;32071;49.036;9.344;2023-06-22T08:16:29;11.60;;;6.47;;
46363;SDS011;32071;49.036;9.344;2023-06-22T08:18:54;7.97;;;7.17;;
46363;SDS011;32071;49.036;9.344;2023-06-22T08:21:20;10.20;;;7.57;;
46363;SDS011;32071;49.036;9.344;2023-06-22T08:23:45;9.00;;;6.80;;
46363;SDS011;32071;49.036;9.344;2023-06-22T08:26:11;10.77;;;8.10;;
46363;SDS011;32071;49.036;9.344;2023-06-22T08:28:37;7.37;;;6.67;;
46363;SDS011;32071;49.036;9.344;2023-06-22T08:31:02;10.30;;;6.93;;
46363;SDS011;32071;49.036;9.344;2023-06-22T08:33:28;10.80;;;7.80;;
46363;SDS011;32071;49.036;9.344;2023-06-22T08:35:55;9.53;;;7.40;;
46363;SDS011;32071;49.036;9.344;2023-06-22T08:38:21;9.60;;;7.13;;
46363;SDS011;32071;49.036;9.344;2023-06-22T08:40:47;7.83;;;7.03;;
46363;SDS011;32071;49.036;9.344;2023-06-22T08:43:12;8.20;;;6.93;;
46363;SDS011;32071;49.036;9.344;2023-06-22T08:45:38;9.40;;;6.43;;
46363;SDS011;32071;49.036;9.344;2023-06-22T08:48:04;9.20;;;7.23;;
46363;SDS011;32071;49.036;9.344;2023-06-22T08:50:30;8.20;;;7.37;;
46363;SDS011;32071;49.036;9.344;2023-06-22T08:52:55;9.17;;;7.13;;
46363;SDS011;32071;49.036;9.344;2023-06-22T08:55:21;7.90;;;7.10;;
46363;SDS011;32071;49.036;9.344;2023-06-22T08:57:46;10.53;;;6.53;;
46363;SDS011;32071;49.036;9.344;2023-06-22T09:00:12;9.97;;;6.83;;
46363;SDS011;32071;49.036;9.344;2023-06-22T09:02:42;7.43;;;6.63;;
46363;SDS011;32071;49.036;9.344;2023-06-22T09:05:09;14.07;;;7.00;;
46363;SDS011;32071;49.036;9.344;2023-06-22T09:07:34;8.03;;;6.90;;
46363;SDS011;32071;49.036;9.344;2023-06-22T09:10:00;8.97;;;7.57;;
46363;SDS011;32071;49.036;9.344;2023-06-22T09:12:26;8.40;;;7.60;;
46363;SDS011;32071;49.036;9.344;2023-06-22T09:14:52;7.97;;;6.63;;
46363;SDS011;32071;49.036;9.344;2023-06-22T09:17:18;7.20;;;6.50;;
46363;SDS011;32071;49.036;9.344;2023-06-22T09:19:44;8.20;;;7.40;;
46363;SDS011;32071;49.036;9.344;2023-06-22T09:22:09;9.60;;;7.70;;
46363;SDS011;32071;49.036;9.344;2023-06-22T09:24:35;8.90;;;6.20;;
46363;SDS011;32071;49.036;9.344;2023-06-22T09:27:00;8.70;;;7.83;;
46363;SDS011;32071;49.036;9.344;2023-06-22T09:29:26;7.93;;;7.00;;
46363;SDS011;32071;49.036;9.344;2023-06-22T09:31:52;8.40;;;7.17;;
46363;SDS011;32071;49.036;9.344;2023-06-22T09:34:20;7.53;;;6.47;;
46363;SDS011;32071;49.036;9.344;2023-06-22T09:36:46;9.27;;;8.20;;
46363;SDS011;32071;49.036;9.344;2023-06-22T09:39:12;7.87;;;6.83;;
46363;SDS011;32071;49.036;9.344;2023-06-22T09:41:38;7.30;;;6.60;;
46363;SDS011;32071;49.036;9.344;2023-06-22T09:44:03;8.73;;;7.80;;
46363;SDS011;32071;49.036;9.344;2023-06-22T09:46:29;13.87;;;7.47;;
46363;SDS011;32071;49.036;9.344;2023-06-22T09:48:55;8.60;;;7.77;;
46363;SDS011;32071;49.036;9.344;2023-06-22T09:51:20;10.00;;;7.57;;
46363;SDS011;32071;49.036;9.344;2023-06-22T09:53:48;8.83;;;7.70;;
46363;SDS011;32071;49.036;9.344;2023-06-22T09:56:14;9.83;;;8.00;;
46363;SDS011;32071;49.036;9.344;2023-06-22T09:58:41;8.33;;;7.47;;
46363;SDS011;32071;49.036;9.344;2023-06-22T10:01:07;10.70;;;7.50;;
46363;SDS011;32071;49.036;9.344;2023-06-22T10:03:33;9.20;;;8.30;;
46363;SDS011;32071;49.036;9.344;2023-06-22T10:05:59;9.00;;;7.60;;
46363;SDS011;32071;49.036;9.344;2023-06-22T10:08:24;8.57;;;6.43;;
46363;SDS011;32071;49.036;9.344;2023-06-22T10:10:50;9.00;;;8.10;;
46363;SDS011;32071;49.036;9.344;2023-06-22T10:13:15;8.10;;;7.30;;
46363;SDS011;32071;49.036;9.344;2023-06-22T10:15:41;9.63;;;7.33;;
46363;SDS011;32071;49.036;9.344;2023-06-22T10:18:07;10.67;;;7.33;;
46363;SDS011;32071;49.036;9.344;2023-06-22T10:20:33;10.10;;;7.57;;
46363;SDS011;32071;49.036;9.344;2023-06-22T10:22:59;10.93;;;7.87;;
46363;SDS011;32071;49.036;9.344;2023-06-22T10:25:24;12.23;;;8.23;;
46363;SDS011;32071;49.036;9.344;2023-06-22T10:27:52;7.90;;;7.10;;
46363;SDS011;32071;49.036;9.344;2023-06-22T10:30:18;8.07;;;7.20;;
46363;SDS011;32071;49.036;9.344;2023-06-22T10:32:43;9.00;;;7.00;;
46363;SDS011;32071;49.036;9.344;2023-06-22T10:35:09;8.90;;;7.03;;
46363;SDS011;32071;49.036;9.344;2023-06-22T10:37:40;9.50;;;6.83;;
46363;SDS011;32071;49.036;9.344;2023-06-22T10:40:08;8.80;;;7.27;;
46363;SDS011;32071;49.036;9.344;2023-06-22T10:42:34;9.57;;;7.30;;
46363;SDS011;32071;49.036;9.344;2023-06-22T10:45:00;8.93;;;7.30;;
46363;SDS011;32071;49.036;9.344;2023-06-22T10:47:25;9.47;;;7.63;;
46363;SDS011;32071;49.036;9.344;2023-06-22T10:49:51;12.03;;;7.60;;
46363;SDS011;32071;49.036;9.344;2023-06-22T10:52:16;9.83;;;7.33;;
46363;SDS011;32071;49.036;9.344;2023-06-22T10:54:42;10.20;;;7.23;;
46363;SDS011;32071;49.036;9.344;2023-06-22T10:57:07;9.10;;;7.10;;
46363;SDS011;32071;49.036;9.344;2023-06-22T10:59:33;7.83;;;7.03;;
46363;SDS011;32071;49.036;9.344;2023-06-22T11:01:59;9.10;;;8.10;;
46363;SDS011;32071;49.036;9.344;2023-06-22T11:04:24;12.33;;;7.90;;
46363;SDS011;32071;49.036;9.344;2023-06-22T11:06:50;7.80;;;6.97;;
46363;SDS011;32071;49.036;9.344;2023-06-22T11:09:16;10.03;;;7.37;;
46363;SDS011;32071;49.036;9.344;2023-06-22T11:11:45;8.23;;;7.37;;
46363;SDS011;32071;49.036;9.344;2023-06-22T11:14:11;9.23;;;7.40;;
46363;SDS011;32071;49.036;9.344;2023-06-22T11:16:37;9.90;;;7.63;;
46363;SDS011;32071;49.036;9.344;2023-06-22T11:19:04;8.33;;;7.50;;
46363;SDS011;32071;49.036;9.344;2023-06-22T11:21:30;10.50;;;7.30;;
46363;SDS011;32071;49.036;9.344;2023-06-22T11:23:57;8.87;;;6.70;;
46363;SDS011;32071;49.036;9.344;2023-06-22T11:26:23;9.23;;;6.80;;
46363;SDS011;32071;49.036;9.344;2023-06-22T11:28:50;9.33;;;7.43;;
46363;SDS011;32071;49.036;9.344;2023-06-22T11:31:15;10.40;;;8.00;;
46363;SDS011;32071;49.036;9.344;2023-06-22T11:33:41;14.13;;;7.20;;
46363;SDS011;32071;49.036;9.344;2023-06-22T11:36:06;13.47;;;8.30;;
46363;SDS011;32071;49.036;9.344;2023-06-22T11:38:32;14.13;;;7.40;;
46363;SDS011;32071;49.036;9.344;2023-06-22T11:40:58;9.87;;;7.80;;
46363;SDS011;32071;49.036;9.344;2023-06-22T11:43:24;8.53;;;7.40;;
46363;SDS011;32071;49.036;9.344;2023-06-22T11:45:50;10.70;;;7.40;;
46363;SDS011;32071;49.036;9.344;2023-06-22T11:48:15;9.80;;;7.77;;
46363;SDS011;32071;49.036;9.344;2023-06-22T11:50:41;8.00;;;7.07;;
46363;SDS011;32071;49.036;9.344;2023-06-22T11:53:06;11.77;;;7.47;;
46363;SDS011;32071;49.036;9.344;2023-06-22T11:55:32;9.13;;;7.10;;
46363;SDS011;32071;49.036;9.344;2023-06-22T11:57:57;8.50;;;7.60;;
46363;SDS011;32071;49.036;9.344;2023-06-22T12:00:25;11.93;;;7.70;;
46363;SDS011;32071;49.036;9.344;2023-06-22T12:02:51;13.10;;;8.20;;
46363;SDS011;32071;49.036;9.344;2023-06-22T12:05:20;8.63;;;6.90;;
46363;SDS011;32071;49.036;9.344;2023-06-22T12:07:49;9.90;;;8.07;;
46363;SDS011;32071;49.036;9.344;2023-06-22T12:10:15;9.80;;;7.33;;
46363;SDS011;32071;49.036;9.344;2023-06-22T12:12:40;12.10;;;7.63;;
46363;SDS011;32071;49.036;9.344;2023-06-22T12:15:07;9.73;;;7.17;;
46363;SDS011;32071;49.036;9.344;2023-06-22T12:17:34;8.53;;;7.40;;
46363;SDS011;32071;49.036;9.344;2023-06-22T12:19:59;13.30;;;7.70;;
46363;SDS011;32071;49.036;9.344;2023-06-22T12:22:25;10.30;;;7.63;;
46363;SDS011;32071;49.036;9.344;2023-06-22T12:24:51;9.03;;;7.50;;
46363;SDS011;32071;49.036;9.344;2023-06-22T12:27:16;8.60;;;7.67;;
46363;SDS011;32071;49.036;9.344;2023-06-22T12:29:43;11.53;;;7.83;;
46363;SDS011;32071;49.036;9.344;2023-06-22T12:32:12;13.00;;;8.07;;
46363;SDS011;32071;49.036;9.344;2023-06-22T12:34:38;9.10;;;7.37;;
46363;SDS011;32071;49.036;9.344;2023-06-22T12:37:05;13.10;;;7.40;;
46363;SDS011;32071;49.036;9.344;2023-06-22T12:39:33;12.13;;;8.47;;
46363;SDS011;32071;49.036;9.344;2023-06-22T12:41:59;16.20;;;8.10;;
46363;SDS011;32071;49.036;9.344;2023-06-22T12:44:25;8.97;;;7.30;;
46363;SDS011;32071;49.036;9.344;2023-06-22T12:46:50;10.60;;;7.97;;
46363;SDS011;32071;49.036;9.344;2023-06-22T12:49:16;11.03;;;7.50;;
46363;SDS011;32071;49.036;9.344;2023-06-22T12:51:42;13.70;;;7.77;;
46363;SDS011;32071;49.036;9.344;2023-06-22T12:54:08;10.20;;;7.97;;
46363;SDS011;32071;49.036;9.344;2023-06-22T12:56:34;10.63;;;7.80;;
46363;SDS011;32071;49.036;9.344;2023-06-22T12:59:00;11.97;;;7.53;;
46363;SDS011;32071;49.036;9.344;2023-06-22T13:01:29;11.80;;;7.83;;
46363;SDS011;32071;49.036;9.344;2023-06-22T13:03:55;9.03;;;7.40;;
46363;SDS011;32071;49.036;9.344;2023-06-22T13:06:21;11.93;;;8.63;;
46363;SDS011;32071;49.036;9.344;2023-06-22T13:08:47;13.80;;;8.23;;
46363;SDS011;32071;49.036;9.344;2023-06-22T13:11:12;11.13;;;8.30;;
46363;SDS011;32071;49.036;9.344;2023-06-22T13:13:38;13.47;;;8.67;;
46363;SDS011;32071;49.036;9.344;2023-06-22T13:16:04;15.63;;;8.20;;
46363;SDS011;32071;49.036;9.344;2023-06-22T13:18:29;11.83;;;7.10;;
46363;SDS011;32071;49.036;9.344;2023-06-22T13:20:55;11.17;;;7.97;;
46363;SDS011;32071;49.036;9.344;2023-06-22T13:23:21;11.77;;;8.40;;
46363;SDS011;32071;49.036;9.344;2023-06-22T13:25:46;12.67;;;7.97;;
46363;SDS011;32071;49.036;9.344;2023-06-22T13:28:12;9.67;;;7.83;;
46363;SDS011;32071;49.036;9.344;2023-06-22T13:30:39;13.10;;;8.27;;
46363;SDS011;32071;49.036;9.344;2023-06-22T13:33:05;9.97;;;8.40;;
46363;SDS011;32071;49.036;9.344;2023-06-22T13:35:31;12.83;;;7.93;;
46363;SDS011;32071;49.036;9.344;2023-06-22T13:37:56;10.70;;;8.23;;
46363;SDS011;32071;49.036;9.344;2023-06-22T13:40:22;15.20;;;8.70;;
46363;SDS011;32071;49.036;9.344;2023-06-22T13:42:47;13.00;;;8.67;;
46363;SDS011;32071;49.036;9.344;2023-06-22T13:45:13;10.50;;;8.90;;
46363;SDS011;32071;49.036;9.344;2023-06-22T13:47:41;13.40;;;8.47;;
46363;SDS011;32071;49.036;9.344;2023-06-22T13:50:07;10.13;;;8.40;;
46363;SDS011;32071;49.036;9.344;2023-06-22T13:52:33;16.33;;;8.63;;
46363;SDS011;32071;49.036;9.344;2023-06-22T13:54:58;10.57;;;9.47;;
46363;SDS011;32071;49.036;9.344;2023-06-22T13:57:24;15.63;;;8.37;;
46363;SDS011;32071;49.036;9.344;2023-06-22T13:59:49;11.83;;;8.70;;
46363;SDS011;32071;49.036;9.344;2023-06-22T14:02:15;9.17;;;8.40;;
46363;SDS011;32071;49.036;9.344;2023-06-22T14:04:40;12.23;;;8.10;;
46363;SDS011;32071;49.036;9.344;2023-06-22T14:07:06;9.13;;;8.20;;
46363;SDS011;32071;49.036;9.344;2023-06-22T14:09:32;14.40;;;8.70;;
46363;SDS011;32071;49.036;9.344;2023-06-22T14:11:57;10.93;;;9.07;;
46363;SDS011;32071;49.036;9.344;2023-06-22T14:14:23;11.27;;;9.10;;
46363;SDS011;32071;49.036;9.344;2023-06-22T14:16:48;13.90;;;8.23;;
46363;SDS011;32071;49.036;9.344;2023-06-22T14:19:18;7.80;;;6.93;;
46363;SDS011;32071;49.036;9.344;2023-06-22T14:21:45;10.70;;;8.60;;
46363;SDS011;32071;49.036;9.344;2023-06-22T14:24:12;10.93;;;8.10;;
46363;SDS011;32071;49.036;9.344;2023-06-22T14:26:38;7.33;;;6.27;;
46363;SDS011;32071;49.036;9.344;2023-06-22T14:29:04;9.93;;;7.90;;
46363;SDS011;32071;49.036;9.344;2023-06-22T14:31:32;11.50;;;8.60;;
46363;SDS011;32071;49.036;9.344;2023-06-22T14:33:58;12.13;;;8.57;;
46363;SDS011;32071;49.036;9.344;2023-06-22T14:36:23;11.73;;;6.93;;
46363;SDS011;32071;49.036;9.344;2023-06-22T14:38:50;16.03;;;9.23;;
46363;SDS011;32071;49.036;9.344;2023-06-22T14:41:16;8.20;;;7.33;;
46363;SDS011;32071;49.036;9.344;2023-06-22T14:43:46;7.10;;;6.40;;
46363;SDS011;32071;49.036;9.344;2023-06-22T14:46:12;9.13;;;8.23;;
46363;SDS011;32071;49.036;9.344;2023-06-22T14:48:43;10.10;;;8.50;;